Time;durP1;ratioP1;P1;durP2;ratioP2;P2;SDS_P1;SDS_P2;PMS_P1;PMS_P2;Temp;Humidity;BMP_temperature;BMP_pressure;BME280_temperature;BME280_humidity;BME280_pressure;Samples;Min_cycle;Max_cycle;Signal;HPM_P1;HPM_P2
2023/06/29 00:00:58;;;;;;;20.20;14.55;;;;;;;19.03;91.72;101517.84;5045203;28;20507;-81
2023/06/29 00:03:25;;;;;;;20.80;14.27;;;;;;;19.03;92.11;101523.13;5048896;28;20048;-81
2023/06/29 00:05:50;;;;;;;19.83;14.10;;;;;;;19.04;92.37;101529.25;5034799;28;20112;-81
2023/06/29 00:08:15;;;;;;;19.15;13.85;;;;;;;19.04;92.43;101530.13;5049406;28;20112;-81
2023/06/29 00:10:41;;;;;;;19.73;13.43;;;;;;;19.03;92.25;101530.16;5029712;28;20036;-81
2023/06/29 00:13:06;;;;;;;19.73;13.93;;;;;;;19.03;91.92;101530.16;5043008;28;20093;-81
2023/06/29 00:15:31;;;;;;;21.23;14.52;;;;;;;19.02;92.06;101526.69;5040564;28;20029;-81
2023/06/29 00:17:57;;;;;;;18.63;13.57;;;;;;;19.03;92.12;101527.53;5041665;28;20025;-81
2023/06/29 00:20:24;;;;;;;19.45;14.10;;;;;;;19.01;92.49;101521.47;5051087;28;20411;-81
2023/06/29 00:22:49;;;;;;;21.25;14.65;;;;;;;18.99;91.50;101520.69;5048285;28;20021;-81
2023/06/29 00:25:15;;;;;;;22.40;15.82;;;;;;;18.98;91.26;101519.00;5052006;28;20113;-81
2023/06/29 00:27:40;;;;;;;22.00;15.95;;;;;;;18.98;91.10;101514.59;5046116;28;20166;-81
2023/06/29 00:30:06;;;;;;;24.63;16.63;;;;;;;18.97;90.96;101507.59;5047874;28;20491;-81
2023/06/29 00:32:32;;;;;;;23.80;17.20;;;;;;;18.98;91.50;101508.44;5050982;28;20033;-81
2023/06/29 00:34:57;;;;;;;26.00;17.48;;;;;;;18.96;91.65;101505.91;5051276;28;20047;-81
2023/06/29 00:37:23;;;;;;;25.08;17.98;;;;;;;18.96;91.75;101506.75;5048679;28;20029;-81
2023/06/29 00:39:48;;;;;;;25.98;16.30;;;;;;;18.96;91.63;101505.91;5045899;28;20521;-81
2023/06/29 00:42:13;;;;;;;22.90;17.13;;;;;;;18.95;92.00;101498.91;5044484;28;20028;-81
2023/06/29 00:44:38;;;;;;;23.20;16.35;;;;;;;18.95;92.35;101506.81;5043940;28;20059;-81
2023/06/29 00:47:04;;;;;;;27.27;16.88;;;;;;;18.95;92.14;101505.06;5046050;28;20021;-81
2023/06/29 00:49:29;;;;;;;22.27;15.88;;;;;;;18.93;92.26;101501.63;5047289;28;20082;-81
2023/06/29 00:51:55;;;;;;;24.90;16.27;;;;;;;18.92;92.22;101499.91;5049728;28;20025;-81
2023/06/29 00:54:21;;;;;;;22.95;16.50;;;;;;;18.92;92.30;101499.91;5047384;28;20036;-81
2023/06/29 00:56:47;;;;;;;22.83;16.10;;;;;;;18.92;92.09;101496.41;5043596;28;20159;-81
2023/06/29 00:59:13;;;;;;;24.38;15.73;;;;;;;18.91;92.12;101498.19;5035482;28;20037;-81
2023/06/29 01:01:39;;;;;;;21.05;15.93;;;;;;;18.89;92.09;101492.16;5051288;28;20031;-81
2023/06/29 01:04:06;;;;;;;22.08;15.32;;;;;;;18.89;91.64;101494.78;5053708;28;20120;-81
2023/06/29 01:06:44;;;;;;;23.75;15.38;;;;;;;18.88;91.74;101484.28;5038027;28;20105;-79
2023/06/29 01:09:11;;;;;;;22.90;15.38;;;;;;;18.86;91.48;101487.03;5047018;28;20033;-79
2023/06/29 01:11:37;;;;;;;21.88;15.75;;;;;;;18.86;90.77;101489.66;5045877;28;20489;-79
2023/06/29 01:14:05;;;;;;;22.13;15.55;;;;;;;18.85;91.13;101485.31;5046375;28;20025;-80
2023/06/29 01:16:33;;;;;;;20.83;14.95;;;;;;;18.84;91.03;101482.78;5049432;28;20021;-81
2023/06/29 01:19:05;;;;;;;23.13;15.55;;;;;;;18.83;91.19;101483.69;5028437;28;20457;-81
2023/06/29 01:21:31;;;;;;;21.80;15.27;;;;;;;18.84;91.49;101480.13;5051364;28;20476;-79
2023/06/29 01:23:58;;;;;;;20.98;15.40;;;;;;;18.83;91.56;101478.41;5050172;28;20529;-82
2023/06/29 01:26:24;;;;;;;21.60;16.02;;;;;;;18.84;91.45;101480.97;5047712;28;20102;-79
2023/06/29 01:28:52;;;;;;;23.42;16.08;;;;;;;18.83;91.67;101476.63;5043034;28;20029;-79
2023/06/29 01:31:18;;;;;;;20.85;15.52;;;;;;;18.81;91.65;101478.47;5040462;28;20029;-81
2023/06/29 01:33:44;;;;;;;21.92;15.52;;;;;;;18.81;91.71;101470.56;5050889;28;20544;-81
2023/06/29 01:36:24;;;;;;;21.98;15.50;;;;;;;18.80;91.87;101472.38;5050770;28;20036;-79
2023/06/29 01:38:55;;;;;;;20.25;14.75;;;;;;;18.80;91.56;101468.88;5037300;28;20031;-81
2023/06/29 01:41:22;;;;;;;;;;;;;;;18.84;89.63;101470.41;5050289;28;20028;-79
2023/06/29 01:43:48;;;;;;;21.92;14.13;;;;;;;18.79;91.20;101467.16;5043714;28;19912;-80
2023/06/29 01:46:14;;;;;;;19.98;13.88;;;;;;;18.78;91.28;101468.13;5030653;28;20484;-81
2023/06/29 01:48:40;;;;;;;21.45;14.52;;;;;;;18.77;91.46;101469.88;5041990;28;20033;-81
2023/06/29 01:51:07;;;;;;;20.95;14.77;;;;;;;18.78;91.61;101466.31;5049218;28;20027;-81
2023/06/29 01:53:37;;;;;;;21.40;15.23;;;;;;;18.78;91.67;101460.22;5033644;28;20120;-81
2023/06/29 01:56:03;;;;;;;23.23;15.13;;;;;;;18.77;91.72;101461.97;5048255;28;20017;-80
2023/06/29 01:58:28;;;;;;;19.05;14.25;;;;;;;18.76;91.20;101452.38;5051019;28;20033;-79
2023/06/29 02:00:54;;;;;;;22.27;15.30;;;;;;;18.77;91.31;101458.50;5041687;28;20033;-81
2023/06/29 02:03:19;;;;;;;20.08;14.80;;;;;;;18.77;91.43;101455.88;5041756;28;20049;-80
2023/06/29 02:05:44;;;;;;;21.13;15.40;;;;;;;18.78;91.43;101454.94;5051540;28;20074;-79
2023/06/29 02:08:09;;;;;;;21.67;15.15;;;;;;;18.78;91.22;101454.94;5049815;28;20258;-80
2023/06/29 02:10:35;;;;;;;22.13;14.70;;;;;;;18.75;91.38;101445.38;5042925;28;20354;-79
2023/06/29 02:13:00;;;;;;;19.30;14.43;;;;;;;18.76;91.71;101446.25;5027925;28;20025;-79
2023/06/29 02:15:25;;;;;;;22.00;14.88;;;;;;;18.76;91.89;101452.38;5037830;28;20048;-79
2023/06/29 02:17:50;;;;;;;21.63;14.77;;;;;;;18.76;91.20;101451.53;5048832;28;20479;-79
2023/06/29 02:20:17;;;;;;;22.00;14.18;;;;;;;18.75;91.12;101455.94;5038207;28;20025;-79
2023/06/29 02:22:42;;;;;;;23.40;14.80;;;;;;;18.75;91.50;101449.81;5018377;28;20024;-81
2023/06/29 02:25:10;;;;;;;20.40;14.48;;;;;;;18.75;91.43;101448.03;5034170;28;20555;-81
2023/06/29 02:27:35;;;;;;;20.05;14.02;;;;;;;18.76;91.00;101451.53;5034692;28;20029;-80
2023/06/29 02:30:01;;;;;;;21.00;14.68;;;;;;;18.75;91.42;101448.03;5041087;28;20025;-80
2023/06/29 02:32:26;;;;;;;20.75;14.60;;;;;;;18.77;91.60;101442.69;5038823;28;20040;-80
2023/06/29 02:34:51;;;;;;;22.20;14.88;;;;;;;18.76;91.49;101444.44;5046900;28;20067;-80
2023/06/29 02:37:16;;;;;;;22.85;14.85;;;;;;;18.76;91.63;101436.53;5045387;28;20105;-79
2023/06/29 02:39:42;;;;;;;21.55;14.73;;;;;;;18.76;91.71;101435.72;5046653;28;20434;-80
2023/06/29 02:42:07;;;;;;;21.65;14.88;;;;;;;18.75;91.74;101432.19;5039509;28;20031;-79
2023/06/29 02:44:32;;;;;;;21.08;14.98;;;;;;;18.75;92.05;101434.00;5044886;28;20065;-79
2023/06/29 02:46:58;;;;;;;22.17;14.77;;;;;;;18.75;91.58;101428.72;5048805;28;20021;-80
2023/06/29 02:49:24;;;;;;;21.63;14.48;;;;;;;18.74;91.90;101433.13;5050496;28;20052;-80
2023/06/29 02:51:49;;;;;;;24.27;15.75;;;;;;;18.74;91.79;101430.50;5049996;28;20032;-80
2023/06/29 02:54:14;;;;;;;21.63;15.27;;;;;;;18.73;92.42;101427.94;5041305;28;20435;-79
2023/06/29 02:56:39;;;;;;;23.90;15.75;;;;;;;18.73;92.58;101422.69;5044640;28;20032;-81
2023/06/29 02:59:05;;;;;;;25.15;16.00;;;;;;;18.72;92.52;101424.44;5041845;28;20080;-79
2023/06/29 03:01:30;;;;;;;21.17;15.10;;;;;;;18.73;92.35;101420.03;5039449;28;20029;-79
2023/06/29 03:03:55;;;;;;;22.70;15.50;;;;;;;18.72;92.70;101418.34;5048926;28;20049;-79
2023/06/29 03:06:20;;;;;;;21.83;14.95;;;;;;;18.71;93.01;101416.63;5053161;28;20033;-79
2023/06/29 03:08:46;;;;;;;22.73;15.40;;;;;;;18.70;93.13;101413.16;5045641;28;20079;-79
2023/06/29 03:11:11;;;;;;;22.33;15.02;;;;;;;18.71;92.59;101416.63;5043678;28;20045;-79
2023/06/29 03:13:36;;;;;;;19.85;14.15;;;;;;;18.71;92.98;101416.63;5043431;28;20025;-79
2023/06/29 03:16:02;;;;;;;21.98;14.70;;;;;;;18.70;92.79;101417.56;5046271;28;20039;-79
2023/06/29 03:18:27;;;;;;;20.63;14.63;;;;;;;18.70;93.17;101422.84;5039567;28;20017;-81
2023/06/29 03:20:53;;;;;;;21.95;14.75;;;;;;;18.70;92.92;101417.56;5042206;28;20053;-79
2023/06/29 03:23:18;;;;;;;20.58;14.30;;;;;;;18.70;93.04;101414.91;5043760;28;20064;-79
2023/06/29 03:25:44;;;;;;;22.17;15.15;;;;;;;18.70;92.92;101413.16;5041149;28;20056;-79
2023/06/29 03:28:09;;;;;;;21.05;14.85;;;;;;;18.69;92.61;101414.09;5037809;28;20495;-79
2023/06/29 03:30:34;;;;;;;20.67;14.57;;;;;;;18.70;92.86;101409.66;5027920;28;20137;-79
2023/06/29 03:33:01;;;;;;;20.40;14.48;;;;;;;18.68;92.96;101406.25;5042510;28;20475;-79
2023/06/29 03:35:26;;;;;;;19.38;14.52;;;;;;;18.65;92.71;101413.38;5047465;28;20056;-79
2023/06/29 03:37:51;;;;;;;20.25;14.30;;;;;;;18.66;92.47;101415.06;5048148;28;20060;-79
2023/06/29 03:40:16;;;;;;;22.00;14.93;;;;;;;18.65;92.75;101408.09;5046322;28;20432;-81
2023/06/29 03:42:42;;;;;;;20.75;15.00;;;;;;;18.64;92.82;101400.28;5043814;28;20021;-79
2023/06/29 03:45:07;;;;;;;20.92;14.65;;;;;;;18.62;92.62;101402.97;5039831;28;20033;-79
2023/06/29 03:47:33;;;;;;;23.33;14.98;;;;;;;18.63;92.49;101394.13;5038061;28;20104;-79
2023/06/29 03:49:58;;;;;;;22.67;15.23;;;;;;;18.63;92.45;101402.03;5045807;28;20040;-81
2023/06/29 03:52:23;;;;;;;22.00;15.00;;;;;;;18.63;92.33;101398.56;5049562;28;20037;-79
2023/06/29 03:54:49;;;;;;;23.13;15.27;;;;;;;18.62;92.93;101392.44;5049605;28;20086;-79
2023/06/29 03:57:15;;;;;;;20.35;14.32;;;;;;;18.61;92.36;101393.41;5049778;28;20025;-81
2023/06/29 03:59:40;;;;;;;22.65;15.18;;;;;;;18.62;92.53;101396.88;5050080;28;20032;-81
2023/06/29 04:02:06;;;;;;;22.38;14.73;;;;;;;18.62;92.37;101392.44;5051287;28;20053;-79
2023/06/29 04:04:31;;;;;;;23.15;15.23;;;;;;;18.61;92.31;101396.03;5048924;28;20102;-81
2023/06/29 04:06:56;;;;;;;22.95;15.52;;;;;;;18.63;92.36;101403.84;5034993;28;20314;-79
2023/06/29 04:09:21;;;;;;;22.10;15.27;;;;;;;18.61;92.73;101396.03;5043654;28;20055;-81
2023/06/29 04:11:47;;;;;;;25.58;15.68;;;;;;;18.63;92.09;101394.13;5045257;28;20090;-79
2023/06/29 04:14:12;;;;;;;24.23;15.20;;;;;;;18.63;92.05;101399.41;5049539;28;20037;-81
2023/06/29 04:16:37;;;;;;;22.92;15.52;;;;;;;18.64;92.23;101392.38;5036535;28;20171;-81
2023/06/29 04:19:04;;;;;;;21.75;14.93;;;;;;;18.65;92.40;101389.66;5052029;28;20399;-79
2023/06/29 04:21:29;;;;;;;22.85;15.68;;;;;;;18.66;92.22;101387.88;5027106;28;20028;-79
2023/06/29 04:23:54;;;;;;;24.67;15.00;;;;;;;18.67;92.03;101389.59;5041072;28;20040;-79
2023/06/29 04:26:22;;;;;;;22.98;15.20;;;;;;;18.68;91.75;101386.03;5038481;28;20105;-79
2023/06/29 04:28:48;;;;;;;21.83;15.82;;;;;;;18.69;91.99;101387.72;5041594;28;20035;-79
2023/06/29 04:31:13;;;;;;;21.95;15.88;;;;;;;18.70;91.78;101381.53;5040712;28;20100;-79
2023/06/29 04:33:39;;;;;;;22.80;14.90;;;;;;;18.72;91.56;101381.44;5045241;28;20029;-80
2023/06/29 04:36:04;;;;;;;24.45;15.82;;;;;;;18.72;91.77;101371.72;5058548;28;20976;-79
2023/06/29 04:38:30;;;;;;;24.17;16.58;;;;;;;18.72;92.03;101382.28;5044944;28;20040;-81
2023/06/29 04:41:03;;;;;;;21.23;15.40;;;;;;;18.73;91.57;101378.72;5051161;28;20029;-79
2023/06/29 04:43:30;;;;;;;25.33;15.68;;;;;;;18.73;91.74;101368.16;5046244;28;20124;-80
2023/06/29 04:45:55;;;;;;;23.95;16.20;;;;;;;18.75;92.00;101376.00;5040574;28;20029;-80
2023/06/29 04:48:24;;;;;;;24.67;16.38;;;;;;;18.75;91.85;101371.56;5042058;28;20720;-79
2023/06/29 04:50:49;;;;;;;24.95;15.57;;;;;;;18.76;92.05;101369.81;5043925;28;20024;-81
2023/06/29 04:53:14;;;;;;;27.67;16.02;;;;;;;18.76;91.86;101367.19;5045505;28;20036;-81
2023/06/29 04:55:40;;;;;;;26.85;15.75;;;;;;;18.77;91.48;101369.72;5044146;28;20025;-80
2023/06/29 04:58:05;;;;;;;24.73;16.13;;;;;;;18.78;91.76;101360.88;5046933;28;20037;-79
2023/06/29 05:00:32;;;;;;;24.08;15.30;;;;;;;18.80;91.60;101369.56;5048121;28;20604;-79
2023/06/29 05:02:57;;;;;;;24.10;15.23;;;;;;;18.81;92.13;101370.41;5047896;28;20057;-81
2023/06/29 05:05:23;;;;;;;22.85;15.77;;;;;;;18.83;91.42;101373.81;5045383;28;20028;-79
2023/06/29 05:07:49;;;;;;;23.25;15.93;;;;;;;18.84;91.90;101370.25;5043396;28;20487;-80
2023/06/29 05:10:15;;;;;;;23.48;15.00;;;;;;;18.86;92.02;101363.13;5043024;28;20112;-81
2023/06/29 05:12:40;;;;;;;24.27;15.73;;;;;;;18.87;92.21;101375.38;5040608;28;20116;-80
2023/06/29 05:15:06;;;;;;;24.52;16.45;;;;;;;18.88;91.65;101371.81;5043647;28;20020;-80
2023/06/29 05:17:31;;;;;;;27.55;15.93;;;;;;;18.90;91.79;101364.66;5043260;28;20415;-80
2023/06/29 05:19:58;;;;;;;23.83;15.88;;;;;;;18.91;92.07;101366.38;5043981;28;20037;-83
2023/06/29 05:22:23;;;;;;;22.23;15.52;;;;;;;18.92;91.72;101368.06;5043747;28;20064;-83
2023/06/29 05:24:48;;;;;;;25.50;16.15;;;;;;;18.93;91.48;101369.78;5047042;28;20087;-83
2023/06/29 05:27:13;;;;;;;23.27;16.40;;;;;;;18.96;91.63;101368.78;5044544;28;20112;-83
2023/06/29 05:29:39;;;;;;;29.77;16.02;;;;;;;18.96;91.27;101361.72;5039918;28;20040;-82
2023/06/29 05:32:05;;;;;;;22.88;15.60;;;;;;;18.99;91.86;101362.50;5040901;28;20488;-81
2023/06/29 05:34:30;;;;;;;23.45;15.70;;;;;;;19.00;91.38;101365.06;5048545;28;20025;-81
2023/06/29 05:36:55;;;;;;;24.92;16.38;;;;;;;19.01;91.72;101360.63;5044679;28;20052;-82
2023/06/29 05:39:20;;;;;;;24.65;16.02;;;;;;;19.03;91.62;101364.03;5054175;28;20133;-81
2023/06/29 05:41:46;;;;;;;22.17;15.25;;;;;;;19.01;91.30;101361.50;5046581;28;20017;-81
2023/06/29 05:44:11;;;;;;;22.73;15.50;;;;;;;19.02;91.45;101367.59;5052928;28;20043;-82
2023/06/29 05:46:36;;;;;;;24.88;15.27;;;;;;;19.03;91.38;101361.41;5050625;28;20602;-81
2023/06/29 05:49:02;;;;;;;23.80;15.60;;;;;;;19.03;91.36;101357.00;5049565;28;20025;-81
2023/06/29 05:51:27;;;;;;;23.23;16.02;;;;;;;19.06;91.54;101363.88;5031659;28;20032;-82
2023/06/29 05:53:53;;;;;;;23.95;15.55;;;;;;;19.09;91.39;101353.19;5050601;28;20108;-81
2023/06/29 05:56:18;;;;;;;21.98;14.60;;;;;;;19.11;91.03;101367.13;5049652;28;20137;-81
2023/06/29 05:58:44;;;;;;;22.90;15.50;;;;;;;19.13;91.06;101357.31;5040958;28;20076;-82
2023/06/29 06:01:10;;;;;;;25.80;15.13;;;;;;;19.16;91.58;101354.53;5038876;28;20532;-81
2023/06/29 06:03:35;;;;;;;20.90;14.35;;;;;;;19.22;90.82;101362.13;5047433;28;20133;-82
2023/06/29 06:06:01;;;;;;;22.50;14.48;;;;;;;19.26;90.41;101357.53;5046565;28;20048;-82
2023/06/29 06:08:26;;;;;;;22.52;15.07;;;;;;;19.29;89.55;101353.88;5039977;28;20031;-82
2023/06/29 06:10:52;;;;;;;24.23;14.35;;;;;;;19.29;89.06;101354.72;5041148;28;20029;-82
2023/06/29 06:13:18;;;;;;;20.05;13.80;;;;;;;19.32;89.21;101358.97;5041551;28;20053;-80
2023/06/29 06:15:43;;;;;;;22.13;13.70;;;;;;;19.32;88.57;101356.34;5040156;28;20539;-82
2023/06/29 06:18:08;;;;;;;21.90;14.30;;;;;;;19.34;88.82;101351.81;5024498;28;20084;-82
2023/06/29 06:20:34;;;;;;;21.38;13.48;;;;;;;19.35;88.55;101350.91;5050163;28;20035;-83
2023/06/29 06:22:59;;;;;;;21.55;13.77;;;;;;;19.36;87.60;101356.09;5030555;28;20038;-81
2023/06/29 06:25:24;;;;;;;21.13;13.93;;;;;;;19.38;87.19;101353.38;5042156;28;20377;-81
2023/06/29 06:27:50;;;;;;;21.52;14.00;;;;;;;19.40;87.50;101354.13;5053759;28;20164;-81
2023/06/29 06:30:15;;;;;;;21.23;14.15;;;;;;;19.43;86.69;101351.34;5053752;28;20053;-82
2023/06/29 06:32:41;;;;;;;21.73;13.50;;;;;;;19.42;85.53;101350.47;5043356;28;20060;-83
2023/06/29 06:35:10;;;;;;;22.77;13.50;;;;;;;19.44;85.50;101350.41;5050481;28;20091;-83
2023/06/29 06:37:36;;;;;;;21.75;13.52;;;;;;;19.48;84.23;101357.19;5052329;28;20025;-81
2023/06/29 06:40:07;;;;;;;21.73;13.45;;;;;;;19.51;84.00;101364.94;5046995;28;20125;-81
2023/06/29 06:42:33;;;;;;;21.15;13.40;;;;;;;19.55;83.63;101355.94;5042062;28;20214;-81
2023/06/29 06:45:00;;;;;;;20.70;12.85;;;;;;;19.58;83.21;101359.34;5048180;28;20430;-82
2023/06/29 06:47:25;;;;;;;18.15;12.15;;;;;;;19.60;81.85;101357.47;5043015;28;20032;-83
2023/06/29 06:49:51;;;;;;;20.58;12.82;;;;;;;19.62;82.14;101355.59;5044440;28;20107;-80
2023/06/29 06:52:16;;;;;;;21.40;13.07;;;;;;;19.65;81.89;101355.41;5042548;28;20032;-81
2023/06/29 06:54:41;;;;;;;22.67;13.82;;;;;;;19.70;81.66;101353.38;5020357;28;20481;-83
2023/06/29 06:57:07;;;;;;;18.75;12.50;;;;;;;19.74;81.04;101359.31;5021803;28;20390;-80
2023/06/29 06:59:32;;;;;;;19.27;12.98;;;;;;;19.76;80.45;101358.31;5043516;28;20479;-81
2023/06/29 07:01:57;;;;;;;21.20;12.43;;;;;;;19.80;80.27;101359.84;5040199;28;20043;-83
2023/06/29 07:04:22;;;;;;;18.98;12.93;;;;;;;19.83;80.02;101357.00;5038286;28;20485;-81
2023/06/29 07:06:48;;;;;;;21.27;13.27;;;;;;;19.90;79.58;101364.63;5042762;28;20155;-82
2023/06/29 07:09:13;;;;;;;20.27;12.70;;;;;;;19.96;79.61;101359.00;5039737;28;20041;-81
2023/06/29 07:11:38;;;;;;;20.30;13.15;;;;;;;20.04;79.35;101355.91;5045515;28;20021;-82
2023/06/29 07:14:04;;;;;;;19.88;12.43;;;;;;;20.10;78.62;101356.41;5048125;28;20065;-82
2023/06/29 07:16:30;;;;;;;20.30;12.50;;;;;;;20.17;77.37;101357.75;5046076;28;20074;-81
2023/06/29 07:19:06;;;;;;;21.45;12.43;;;;;;;20.26;77.79;101356.34;5048219;28;20062;-80
2023/06/29 07:21:31;;;;;;;19.73;13.05;;;;;;;20.32;76.95;101356.00;5049542;28;20124;-82
2023/06/29 07:23:57;;;;;;;20.70;12.27;;;;;;;20.37;75.26;101358.38;5042815;28;20524;-82
2023/06/29 07:26:22;;;;;;;19.15;11.95;;;;;;;20.40;76.71;101350.25;5038480;28;20139;-83
2023/06/29 07:28:48;;;;;;;19.42;12.35;;;;;;;20.43;76.25;101336.88;5048866;28;20021;-80
2023/06/29 07:31:13;;;;;;;18.65;11.90;;;;;;;20.46;75.50;101338.47;5047208;28;20043;-80
2023/06/29 07:33:38;;;;;;;19.95;12.07;;;;;;;20.49;74.88;101340.09;5044403;28;20476;-79
2023/06/29 07:36:04;;;;;;;16.55;11.50;;;;;;;20.52;74.47;101342.53;5045559;28;20060;-80
2023/06/29 07:38:30;;;;;;;17.40;11.98;;;;;;;20.54;73.54;101348.59;5043003;28;20023;-80
2023/06/29 07:40:55;;;;;;;19.92;11.50;;;;;;;20.57;73.84;101348.41;5038773;28;20029;-80
2023/06/29 07:43:20;;;;;;;18.60;11.45;;;;;;;20.61;73.41;101349.94;5046770;28;20043;-80
2023/06/29 07:45:46;;;;;;;16.52;11.55;;;;;;;20.65;73.16;101351.44;5046762;28;20025;-80
2023/06/29 07:48:11;;;;;;;20.90;11.85;;;;;;;20.68;72.56;101345.94;5044423;28;20040;-79
2023/06/29 07:50:36;;;;;;;19.13;12.43;;;;;;;20.73;72.26;101343.06;5042734;28;20507;-78
2023/06/29 07:53:01;;;;;;;17.67;11.50;;;;;;;20.76;71.96;101341.09;5037596;28;20043;-79
2023/06/29 07:55:27;;;;;;;18.63;11.82;;;;;;;20.83;71.50;101340.75;5029375;28;20034;-79
2023/06/29 07:57:52;;;;;;;19.55;12.07;;;;;;;20.84;71.40;101340.63;5041358;28;20028;-79
2023/06/29 08:00:18;;;;;;;17.65;12.20;;;;;;;20.88;70.20;101347.44;5042380;28;20017;-79
2023/06/29 08:02:43;;;;;;;16.38;11.45;;;;;;;20.91;70.70;101341.97;5044438;28;20365;-79
2023/06/29 08:05:09;;;;;;;17.83;11.73;;;;;;;20.97;69.00;101343.38;5039666;28;20052;-79
2023/06/29 08:07:34;;;;;;;17.73;12.00;;;;;;;21.06;70.69;101336.66;5039843;28;20097;-79
2023/06/29 08:10:00;;;;;;;18.75;11.93;;;;;;;21.17;69.70;101342.13;5023526;28;20033;-78
2023/06/29 08:12:25;;;;;;;18.27;11.00;;;;;;;21.28;67.77;101344.09;5039738;28;20032;-80
2023/06/29 08:14:50;;;;;;;19.52;12.60;;;;;;;21.38;67.14;101339.91;5043061;28;20377;-80
2023/06/29 08:17:16;;;;;;;18.67;12.13;;;;;;;21.45;66.97;101335.06;5043602;28;20032;-80
2023/06/29 08:19:41;;;;;;;24.10;12.50;;;;;;;21.53;66.36;101335.44;5040172;28;20076;-81
2023/06/29 08:22:06;;;;;;;18.60;11.73;;;;;;;21.61;64.92;101332.31;5037951;28;20025;-80
2023/06/29 08:24:31;;;;;;;20.60;12.73;;;;;;;21.67;63.88;101328.44;5039098;28;20063;-82
2023/06/29 08:26:58;;;;;;;20.08;11.80;;;;;;;21.72;65.52;101330.75;5044004;28;20029;-82
2023/06/29 08:29:24;;;;;;;18.95;11.90;;;;;;;21.76;63.87;101335.78;5040646;28;20055;-82
2023/06/29 08:31:49;;;;;;;18.67;11.40;;;;;;;21.78;63.61;101333.03;5040400;28;20468;-81
2023/06/29 08:34:14;;;;;;;19.70;11.90;;;;;;;21.81;63.34;101325.72;5037801;28;20053;-81
2023/06/29 08:36:40;;;;;;;16.83;11.45;;;;;;;21.83;62.56;101333.59;5033399;28;20030;-81
2023/06/29 08:39:05;;;;;;;18.40;11.60;;;;;;;21.86;62.50;101328.09;5036581;28;20100;-82
2023/06/29 08:41:30;;;;;;;18.40;11.63;;;;;;;21.90;62.31;101334.03;5036587;28;20029;-82
2023/06/29 08:43:56;;;;;;;20.27;11.52;;;;;;;21.92;61.32;101332.97;5022272;28;20045;-82
2023/06/29 08:46:21;;;;;;;17.15;11.32;;;;;;;21.94;61.59;101327.56;5035606;28;20378;-83
2023/06/29 08:48:47;;;;;;;19.23;11.68;;;;;;;21.97;61.79;101333.50;5042154;28;20032;-82
2023/06/29 08:51:17;;;;;;;21.13;11.73;;;;;;;22.00;61.36;101334.25;5039254;28;20033;-82
2023/06/29 08:53:42;;;;;;;18.27;11.00;;;;;;;22.01;61.61;101328.84;5043097;28;20025;-80
2023/06/29 08:56:08;;;;;;;18.45;11.95;;;;;;;22.05;61.04;101338.31;5040322;28;20112;-81
2023/06/29 08:58:34;;;;;;;19.63;11.48;;;;;;;22.08;60.30;101326.63;5039547;28;20180;-82
2023/06/29 09:00:59;;;;;;;18.13;11.88;;;;;;;22.11;60.21;101331.75;5047627;28;20029;-82
2023/06/29 09:03:26;;;;;;;21.90;12.23;;;;;;;22.15;60.76;101333.25;5043991;28;20083;-80
2023/06/29 09:05:54;;;;;;;20.00;12.98;;;;;;;22.17;60.30;101326.03;5045707;28;20032;-81
2023/06/29 09:08:20;;;;;;;18.40;11.82;;;;;;;22.21;60.66;101327.50;5044859;28;20078;-81
2023/06/29 09:10:46;;;;;;;20.30;13.25;;;;;;;22.27;61.50;101323.63;5027164;28;20116;-81
2023/06/29 09:13:12;;;;;;;18.08;12.40;;;;;;;22.32;59.21;101321.47;5044508;28;20461;-80
2023/06/29 09:15:39;;;;;;;16.95;11.75;;;;;;;22.38;60.35;101322.84;5045011;28;20025;-81
2023/06/29 09:18:05;;;;;;;20.67;12.75;;;;;;;22.41;59.72;101317.34;5045920;28;20070;-81
2023/06/29 09:20:34;;;;;;;18.60;11.88;;;;;;;22.47;60.80;101316.97;5044944;28;20040;-81
2023/06/29 09:23:01;;;;;;;18.45;12.80;;;;;;;22.47;59.41;101314.31;5038415;28;20396;-81
2023/06/29 09:25:26;;;;;;;18.50;12.55;;;;;;;22.53;60.33;101310.41;5048121;28;20017;-81
2023/06/29 09:28:01;;;;;;;19.17;12.85;;;;;;;22.57;60.41;101311.88;5039040;28;20025;-81
2023/06/29 09:30:27;;;;;;;19.75;12.48;;;;;;;22.59;59.19;101318.78;5047408;28;20025;-81
2023/06/29 09:32:52;;;;;;;17.35;11.48;;;;;;;22.64;59.20;101312.31;5048130;28;20107;-82
2023/06/29 09:35:22;;;;;;;19.08;12.32;;;;;;;22.65;59.91;101314.84;5047041;28;20029;-81
2023/06/29 09:37:48;;;;;;;18.98;12.57;;;;;;;22.70;60.17;101309.25;5043663;28;20108;-82
2023/06/29 09:40:14;;;;;;;19.90;13.15;;;;;;;22.72;58.95;101309.94;5041170;28;20517;-83
2023/06/29 09:42:40;;;;;;;20.35;12.57;;;;;;;22.78;59.76;101308.69;5044319;28;20131;-82
2023/06/29 09:45:14;;;;;;;18.92;12.27;;;;;;;22.83;59.14;101315.38;5027872;28;20059;-82
2023/06/29 09:47:41;;;;;;;17.45;11.63;;;;;;;22.87;57.28;101306.25;5046435;28;20025;-82
2023/06/29 09:50:19;;;;;;;17.42;10.73;;;;;;;22.94;59.42;101308.44;5042893;28;20032;-83
2023/06/29 09:52:46;;;;;;;17.40;11.73;;;;;;;23.00;58.56;101303.53;5047710;28;20030;-81
2023/06/29 09:55:12;;;;;;;18.10;12.35;;;;;;;23.06;58.49;101312.88;5047981;28;20026;-81
2023/06/29 09:57:42;;;;;;;18.40;12.15;;;;;;;23.08;58.24;101316.25;5046431;28;20033;-82
2023/06/29 10:00:11;;;;;;;19.55;12.82;;;;;;;23.10;57.55;101319.66;5045097;28;20499;-82
2023/06/29 10:02:37;;;;;;;17.30;11.85;;;;;;;23.11;57.23;101313.41;5047545;28;20472;-83
2023/06/29 10:05:03;;;;;;;19.42;12.80;;;;;;;23.10;58.26;101317.00;5047040;28;20036;-82
2023/06/29 10:07:28;;;;;;;20.23;11.90;;;;;;;23.09;57.11;101317.97;5045768;28;20025;-84
2023/06/29 10:09:54;;;;;;;17.35;11.05;;;;;;;23.10;56.57;101319.66;5045133;28;20032;-83
2023/06/29 10:12:25;;;;;;;17.20;11.20;;;;;;;23.10;56.56;101319.66;5047398;28;20040;-84
2023/06/29 10:14:53;;;;;;;18.83;11.60;;;;;;;23.09;56.30;101320.63;5042190;28;20112;-85
2023/06/29 10:17:52;;;;;;;18.35;11.05;;;;;;;23.12;58.60;101323.06;5043556;28;20454;-82
2023/06/29 10:20:21;;;;;;;16.45;10.55;;;;;;;23.08;56.83;101321.56;5024593;28;20037;-82
2023/06/29 10:22:48;;;;;;;19.10;10.80;;;;;;;23.07;56.72;101314.56;5043395;28;20040;-83
2023/06/29 10:25:18;;;;;;;17.70;11.75;;;;;;;23.08;56.31;101315.44;5043435;28;20121;-82
2023/06/29 10:27:44;;;;;;;17.73;11.45;;;;;;;23.11;56.18;101315.22;5045740;28;20078;-82
2023/06/29 10:30:10;;;;;;;21.23;11.98;;;;;;;23.15;56.68;101321.97;5045350;28;20052;-82
2023/06/29 10:32:37;;;;;;;17.50;11.48;;;;;;;23.22;57.80;101317.13;5047430;28;20059;-82
2023/06/29 10:35:13;;;;;;;19.67;11.90;;;;;;;23.23;58.04;101308.22;5027755;28;20382;-82
2023/06/29 10:37:41;;;;;;;19.38;12.15;;;;;;;23.25;55.75;101311.59;5045518;28;20429;-82
2023/06/29 10:40:17;;;;;;;17.05;11.40;;;;;;;23.25;57.13;101311.59;5045887;28;20208;-82
2023/06/29 10:42:42;;;;;;;17.10;11.55;;;;;;;23.23;56.66;101310.88;5044251;28;20036;-82
2023/06/29 10:45:23;;;;;;;17.35;10.80;;;;;;;23.23;57.24;101309.06;5046550;28;20581;-82
2023/06/29 10:47:57;;;;;;;19.73;11.80;;;;;;;23.23;57.45;101318.84;5041869;28;20391;-82
2023/06/29 10:50:27;;;;;;;19.08;12.18;;;;;;;23.21;56.24;101310.13;5047936;28;20392;-82
2023/06/29 10:52:58;;;;;;;20.35;12.50;;;;;;;23.22;56.84;101312.66;5045099;28;20110;-82
2023/06/29 10:55:25;;;;;;;18.13;11.63;;;;;;;23.24;55.82;101309.88;5042301;28;20431;-83
2023/06/29 10:57:51;;;;;;;20.92;12.23;;;;;;;23.18;56.43;101305.84;5026791;28;20024;-83
2023/06/29 11:00:17;;;;;;;18.67;12.50;;;;;;;23.13;56.13;101310.66;5044048;28;20495;-82
2023/06/29 11:02:44;;;;;;;20.90;13.45;;;;;;;23.07;56.98;101303.94;5042595;28;20029;-82
2023/06/29 11:05:14;;;;;;;20.17;12.85;;;;;;;23.05;57.32;101311.19;5045485;28;20067;-81